sensor_id;sensor_type;location;lat;lon;timestamp;temperature;humidity
73955;DHT22;62306;52.516;13.290;2022-09-09T00:02:13;15.40;95.10
73955;DHT22;62306;52.516;13.290;2022-09-09T00:04:48;15.40;95.20
73955;DHT22;62306;52.516;13.290;2022-09-09T00:07:21;15.40;95.30
73955;DHT22;62306;52.516;13.290;2022-09-09T00:09:57;15.40;95.40
73955;DHT22;62306;52.516;13.290;2022-09-09T00:12:32;15.40;95.30
73955;DHT22;62306;52.516;13.290;2022-09-09T00:15:05;15.40;95.20
73955;DHT22;62306;52.516;13.290;2022-09-09T00:17:37;15.30;95.30
73955;DHT22;62306;52.516;13.290;2022-09-09T00:20:12;15.30;95.20
73955;DHT22;62306;52.516;13.290;2022-09-09T00:22:44;15.30;95.20
73955;DHT22;62306;52.516;13.290;2022-09-09T00:25:17;15.30;95.20
73955;DHT22;62306;52.516;13.290;2022-09-09T00:27:48;15.30;95.20
73955;DHT22;62306;52.516;13.290;2022-09-09T00:30:17;15.30;95.20
73955;DHT22;62306;52.516;13.290;2022-09-09T00:32:49;15.20;95.20
73955;DHT22;62306;52.516;13.290;2022-09-09T00:35:21;15.20;95.20
73955;DHT22;62306;52.516;13.290;2022-09-09T00:37:52;15.20;95.30
73955;DHT22;62306;52.516;13.290;2022-09-09T00:40:24;15.20;95.30
73955;DHT22;62306;52.516;13.290;2022-09-09T00:42:54;15.10;95.30
73955;DHT22;62306;52.516;13.290;2022-09-09T00:45:43;15.10;95.30
73955;DHT22;62306;52.516;13.290;2022-09-09T00:48:13;15.10;95.30
73955;DHT22;62306;52.516;13.290;2022-09-09T00:50:50;15.10;95.30
73955;DHT22;62306;52.516;13.290;2022-09-09T00:53:31;15.10;95.30
73955;DHT22;62306;52.516;13.290;2022-09-09T00:56:07;15.00;95.30
73955;DHT22;62306;52.516;13.290;2022-09-09T00:58:35;15.10;95.40
73955;DHT22;62306;52.516;13.290;2022-09-09T01:01:04;15.00;95.40
73955;DHT22;62306;52.516;13.290;2022-09-09T01:03:35;15.00;95.30
73955;DHT22;62306;52.516;13.290;2022-09-09T01:06:12;15.10;95.40
73955;DHT22;62306;52.516;13.290;2022-09-09T01:09:15;15.10;95.30
73955;DHT22;62306;52.516;13.290;2022-09-09T01:11:51;15.00;95.30
73955;DHT22;62306;52.516;13.290;2022-09-09T01:14:35;15.00;95.40
73955;DHT22;62306;52.516;13.290;2022-09-09T01:17:11;15.00;95.30
73955;DHT22;62306;52.516;13.290;2022-09-09T01:19:49;15.00;95.40
73955;DHT22;62306;52.516;13.290;2022-09-09T01:22:26;15.00;95.30
73955;DHT22;62306;52.516;13.290;2022-09-09T01:25:20;15.00;95.30
73955;DHT22;62306;52.516;13.290;2022-09-09T01:27:50;15.00;95.30
73955;DHT22;62306;52.516;13.290;2022-09-09T01:30:18;14.90;95.40
73955;DHT22;62306;52.516;13.290;2022-09-09T01:32:47;14.90;95.50
73955;DHT22;62306;52.516;13.290;2022-09-09T01:35:26;14.90;95.40
73955;DHT22;62306;52.516;13.290;2022-09-09T01:37:55;14.90;95.40
73955;DHT22;62306;52.516;13.290;2022-09-09T01:40:24;14.90;95.40
73955;DHT22;62306;52.516;13.290;2022-09-09T01:42:53;14.90;95.40
73955;DHT22;62306;52.516;13.290;2022-09-09T01:45:21;14.90;95.40
73955;DHT22;62306;52.516;13.290;2022-09-09T01:47:49;14.80;95.30
73955;DHT22;62306;52.516;13.290;2022-09-09T01:50:17;14.90;95.30
73955;DHT22;62306;52.516;13.290;2022-09-09T01:52:47;14.90;95.30
73955;DHT22;62306;52.516;13.290;2022-09-09T01:55:15;14.80;95.20
73955;DHT22;62306;52.516;13.290;2022-09-09T01:57:50;14.80;95.10
73955;DHT22;62306;52.516;13.290;2022-09-09T02:00:22;14.80;95.20
73955;DHT22;62306;52.516;13.290;2022-09-09T02:02:56;14.80;95.10
73955;DHT22;62306;52.516;13.290;2022-09-09T02:05:31;14.80;95.10
73955;DHT22;62306;52.516;13.290;2022-09-09T02:08:06;14.70;95.10
73955;DHT22;62306;52.516;13.290;2022-09-09T02:10:44;14.80;95.10
73955;DHT22;62306;52.516;13.290;2022-09-09T02:13:15;14.80;95.00
73955;DHT22;62306;52.516;13.290;2022-09-09T02:15:50;14.70;95.00
73955;DHT22;62306;52.516;13.290;2022-09-09T02:18:24;14.70;95.10
73955;DHT22;62306;52.516;13.290;2022-09-09T02:20:53;14.70;95.10
73955;DHT22;62306;52.516;13.290;2022-09-09T02:23:21;14.70;95.00
73955;DHT22;62306;52.516;13.290;2022-09-09T02:25:49;14.70;94.90
73955;DHT22;62306;52.516;13.290;2022-09-09T02:28:20;14.70;94.80
73955;DHT22;62306;52.516;13.290;2022-09-09T02:30:51;14.60;94.90
73955;DHT22;62306;52.516;13.290;2022-09-09T02:33:22;14.50;94.90
73955;DHT22;62306;52.516;13.290;2022-09-09T02:35:51;14.60;95.00
73955;DHT22;62306;52.516;13.290;2022-09-09T02:38:20;14.60;95.00
73955;DHT22;62306;52.516;13.290;2022-09-09T02:40:48;14.50;95.00
73955;DHT22;62306;52.516;13.290;2022-09-09T02:43:15;14.50;95.10
73955;DHT22;62306;52.516;13.290;2022-09-09T02:45:51;14.50;95.00
73955;DHT22;62306;52.516;13.290;2022-09-09T02:48:28;14.50;95.10
73955;DHT22;62306;52.516;13.290;2022-09-09T02:51:01;14.50;95.10
73955;DHT22;62306;52.516;13.290;2022-09-09T02:53:39;14.50;95.00
73955;DHT22;62306;52.516;13.290;2022-09-09T02:56:11;14.50;95.00
73955;DHT22;62306;52.516;13.290;2022-09-09T02:58:40;14.50;95.10
73955;DHT22;62306;52.516;13.290;2022-09-09T03:01:09;14.40;95.00
73955;DHT22;62306;52.516;13.290;2022-09-09T03:03:36;14.50;95.00
73955;DHT22;62306;52.516;13.290;2022-09-09T03:06:03;14.50;95.00
73955;DHT22;62306;52.516;13.290;2022-09-09T03:08:31;14.40;95.00
73955;DHT22;62306;52.516;13.290;2022-09-09T03:10:59;14.40;95.00
73955;DHT22;62306;52.516;13.290;2022-09-09T03:13:27;14.40;95.00
73955;DHT22;62306;52.516;13.290;2022-09-09T03:15:53;14.40;94.90
73955;DHT22;62306;52.516;13.290;2022-09-09T03:18:21;14.40;94.90
73955;DHT22;62306;52.516;13.290;2022-09-09T03:20:48;14.40;95.00
73955;DHT22;62306;52.516;13.290;2022-09-09T03:23:16;14.30;94.90
73955;DHT22;62306;52.516;13.290;2022-09-09T03:25:46;14.30;95.00
73955;DHT22;62306;52.516;13.290;2022-09-09T03:28:14;14.30;95.00
73955;DHT22;62306;52.516;13.290;2022-09-09T03:30:41;14.40;94.80
73955;DHT22;62306;52.516;13.290;2022-09-09T03:33:07;14.30;94.90
73955;DHT22;62306;52.516;13.290;2022-09-09T03:35:36;14.30;94.80
73955;DHT22;62306;52.516;13.290;2022-09-09T03:38:02;14.30;94.80
73955;DHT22;62306;52.516;13.290;2022-09-09T03:40:29;14.30;94.70
73955;DHT22;62306;52.516;13.290;2022-09-09T03:42:57;14.30;94.80
73955;DHT22;62306;52.516;13.290;2022-09-09T03:45:24;14.20;94.90
73955;DHT22;62306;52.516;13.290;2022-09-09T03:47:50;14.30;94.90
73955;DHT22;62306;52.516;13.290;2022-09-09T03:50:17;14.30;94.80
73955;DHT22;62306;52.516;13.290;2022-09-09T03:52:45;14.30;94.70
73955;DHT22;62306;52.516;13.290;2022-09-09T03:55:14;14.20;94.70
73955;DHT22;62306;52.516;13.290;2022-09-09T03:57:41;14.30;94.70
73955;DHT22;62306;52.516;13.290;2022-09-09T04:00:09;14.20;94.70
73955;DHT22;62306;52.516;13.290;2022-09-09T04:02:36;14.20;94.70
73955;DHT22;62306;52.516;13.290;2022-09-09T04:05:03;14.20;94.80
73955;DHT22;62306;52.516;13.290;2022-09-09T04:07:31;14.20;94.70
73955;DHT22;62306;52.516;13.290;2022-09-09T04:09:59;14.20;94.80
73955;DHT22;62306;52.516;13.290;2022-09-09T04:12:27;14.10;94.70
73955;DHT22;62306;52.516;13.290;2022-09-09T04:14:53;14.10;94.70
73955;DHT22;62306;52.516;13.290;2022-09-09T04:17:20;14.10;94.70
73955;DHT22;62306;52.516;13.290;2022-09-09T04:19:47;14.10;94.70
73955;DHT22;62306;52.516;13.290;2022-09-09T04:22:14;14.10;94.70
73955;DHT22;62306;52.516;13.290;2022-09-09T04:24:41;14.10;94.70
73955;DHT22;62306;52.516;13.290;2022-09-09T04:27:09;14.10;94.60
73955;DHT22;62306;52.516;13.290;2022-09-09T04:29:36;14.10;94.60
73955;DHT22;62306;52.516;13.290;2022-09-09T04:32:03;14.10;94.60
73955;DHT22;62306;52.516;13.290;2022-09-09T04:34:30;14.10;94.60
73955;DHT22;62306;52.516;13.290;2022-09-09T04:36:58;14.10;94.60
73955;DHT22;62306;52.516;13.290;2022-09-09T04:39:25;14.20;94.50
73955;DHT22;62306;52.516;13.290;2022-09-09T04:41:52;14.20;94.40
73955;DHT22;62306;52.516;13.290;2022-09-09T04:44:20;14.20;94.30
73955;DHT22;62306;52.516;13.290;2022-09-09T04:46:47;14.20;94.30
73955;DHT22;62306;52.516;13.290;2022-09-09T04:49:14;14.20;94.20
73955;DHT22;62306;52.516;13.290;2022-09-09T04:51:41;14.30;94.10
73955;DHT22;62306;52.516;13.290;2022-09-09T04:54:08;14.30;94.00
73955;DHT22;62306;52.516;13.290;2022-09-09T04:56:35;14.30;93.90
73955;DHT22;62306;52.516;13.290;2022-09-09T04:59:02;14.40;93.90
73955;DHT22;62306;52.516;13.290;2022-09-09T05:01:31;14.40;93.80
73955;DHT22;62306;52.516;13.290;2022-09-09T05:03:58;14.40;93.70
73955;DHT22;62306;52.516;13.290;2022-09-09T05:06:25;14.50;93.60
73955;DHT22;62306;52.516;13.290;2022-09-09T05:08:52;14.50;93.40
73955;DHT22;62306;52.516;13.290;2022-09-09T05:11:20;14.60;93.20
73955;DHT22;62306;52.516;13.290;2022-09-09T05:13:49;14.70;93.10
73955;DHT22;62306;52.516;13.290;2022-09-09T05:16:17;14.80;93.00
73955;DHT22;62306;52.516;13.290;2022-09-09T05:18:46;14.80;92.70
73955;DHT22;62306;52.516;13.290;2022-09-09T05:21:15;14.90;92.70
73955;DHT22;62306;52.516;13.290;2022-09-09T05:23:42;14.90;92.40
73955;DHT22;62306;52.516;13.290;2022-09-09T05:26:13;15.10;92.20
73955;DHT22;62306;52.516;13.290;2022-09-09T05:28:40;15.10;92.10
73955;DHT22;62306;52.516;13.290;2022-09-09T05:31:08;15.20;91.80
73955;DHT22;62306;52.516;13.290;2022-09-09T05:33:37;15.20;91.80
73955;DHT22;62306;52.516;13.290;2022-09-09T05:36:09;15.30;91.60
73955;DHT22;62306;52.516;13.290;2022-09-09T05:38:36;15.40;91.40
73955;DHT22;62306;52.516;13.290;2022-09-09T05:41:03;15.40;91.50
73955;DHT22;62306;52.516;13.290;2022-09-09T05:43:30;15.40;91.40
73955;DHT22;62306;52.516;13.290;2022-09-09T05:46:02;15.30;91.60
73955;DHT22;62306;52.516;13.290;2022-09-09T05:48:29;15.30;91.50
73955;DHT22;62306;52.516;13.290;2022-09-09T05:50:57;15.40;91.70
73955;DHT22;62306;52.516;13.290;2022-09-09T05:53:26;15.40;91.40
73955;DHT22;62306;52.516;13.290;2022-09-09T05:56:00;15.60;91.40
73955;DHT22;62306;52.516;13.290;2022-09-09T05:58:29;15.70;91.10
73955;DHT22;62306;52.516;13.290;2022-09-09T06:01:01;16.00;90.60
73955;DHT22;62306;52.516;13.290;2022-09-09T06:03:28;16.20;90.10
73955;DHT22;62306;52.516;13.290;2022-09-09T06:05:58;16.30;88.90
73955;DHT22;62306;52.516;13.290;2022-09-09T06:08:27;16.40;88.70
73955;DHT22;62306;52.516;13.290;2022-09-09T06:11:00;16.50;88.50
73955;DHT22;62306;52.516;13.290;2022-09-09T06:13:28;16.60;88.60
73955;DHT22;62306;52.516;13.290;2022-09-09T06:15:54;16.70;88.10
73955;DHT22;62306;52.516;13.290;2022-09-09T06:18:21;16.80;88.00
73955;DHT22;62306;52.516;13.290;2022-09-09T06:20:58;17.10;87.30
73955;DHT22;62306;52.516;13.290;2022-09-09T06:23:27;17.50;85.10
73955;DHT22;62306;52.516;13.290;2022-09-09T06:26:04;17.60;84.60
73955;DHT22;62306;52.516;13.290;2022-09-09T06:28:32;17.90;83.60
73955;DHT22;62306;52.516;13.290;2022-09-09T06:30:59;18.10;82.40
73955;DHT22;62306;52.516;13.290;2022-09-09T06:33:26;18.30;81.00
73955;DHT22;62306;52.516;13.290;2022-09-09T06:35:54;18.50;80.80
73955;DHT22;62306;52.516;13.290;2022-09-09T06:38:22;18.60;79.60
73955;DHT22;62306;52.516;13.290;2022-09-09T06:40:53;18.50;79.50
73955;DHT22;62306;52.516;13.290;2022-09-09T06:43:21;18.20;80.60
73955;DHT22;62306;52.516;13.290;2022-09-09T06:45:57;17.90;81.80
73955;DHT22;62306;52.516;13.290;2022-09-09T06:48:24;17.60;83.00
73955;DHT22;62306;52.516;13.290;2022-09-09T06:51:00;17.60;83.30
73955;DHT22;62306;52.516;13.290;2022-09-09T06:53:27;17.50;84.00
73955;DHT22;62306;52.516;13.290;2022-09-09T06:55:55;17.70;83.60
73955;DHT22;62306;52.516;13.290;2022-09-09T06:58:22;18.00;82.90
73955;DHT22;62306;52.516;13.290;2022-09-09T07:00:49;18.40;81.80
73955;DHT22;62306;52.516;13.290;2022-09-09T07:03:16;18.90;80.60
73955;DHT22;62306;52.516;13.290;2022-09-09T07:05:43;19.30;78.20
73955;DHT22;62306;52.516;13.290;2022-09-09T07:08:10;19.80;75.70
73955;DHT22;62306;52.516;13.290;2022-09-09T07:10:37;20.20;74.80
73955;DHT22;62306;52.516;13.290;2022-09-09T07:13:06;20.30;74.00
73955;DHT22;62306;52.516;13.290;2022-09-09T07:15:33;20.30;72.80
73955;DHT22;62306;52.516;13.290;2022-09-09T07:18:01;20.30;73.60
73955;DHT22;62306;52.516;13.290;2022-09-09T07:20:28;20.30;73.10
73955;DHT22;62306;52.516;13.290;2022-09-09T07:22:55;20.70;72.70
73955;DHT22;62306;52.516;13.290;2022-09-09T07:25:24;20.70;71.60
73955;DHT22;62306;52.516;13.290;2022-09-09T07:27:52;21.00;71.20
73955;DHT22;62306;52.516;13.290;2022-09-09T07:30:20;21.10;69.50
73955;DHT22;62306;52.516;13.290;2022-09-09T07:32:47;21.20;69.40
73955;DHT22;62306;52.516;13.290;2022-09-09T07:35:14;21.40;68.90
73955;DHT22;62306;52.516;13.290;2022-09-09T07:37:41;21.50;69.40
73955;DHT22;62306;52.516;13.290;2022-09-09T07:40:08;21.70;68.90
73955;DHT22;62306;52.516;13.290;2022-09-09T07:42:36;21.90;66.80
73955;DHT22;62306;52.516;13.290;2022-09-09T07:45:03;22.30;66.50
73955;DHT22;62306;52.516;13.290;2022-09-09T07:47:32;22.60;65.10
73955;DHT22;62306;52.516;13.290;2022-09-09T07:49:59;22.70;64.30
73955;DHT22;62306;52.516;13.290;2022-09-09T07:52:27;22.80;64.50
73955;DHT22;62306;52.516;13.290;2022-09-09T07:54:54;22.50;64.50
73955;DHT22;62306;52.516;13.290;2022-09-09T07:57:22;22.30;66.00
73955;DHT22;62306;52.516;13.290;2022-09-09T07:59:48;22.20;66.00
73955;DHT22;62306;52.516;13.290;2022-09-09T08:02:16;22.40;65.40
73955;DHT22;62306;52.516;13.290;2022-09-09T08:04:44;22.50;65.40
73955;DHT22;62306;52.516;13.290;2022-09-09T08:07:11;22.60;65.10
73955;DHT22;62306;52.516;13.290;2022-09-09T08:09:38;22.70;64.60
73955;DHT22;62306;52.516;13.290;2022-09-09T08:12:05;22.90;63.00
73955;DHT22;62306;52.516;13.290;2022-09-09T08:14:34;23.10;62.80
73955;DHT22;62306;52.516;13.290;2022-09-09T08:17:01;23.20;62.20
73955;DHT22;62306;52.516;13.290;2022-09-09T08:19:28;23.00;62.90
73955;DHT22;62306;52.516;13.290;2022-09-09T08:21:57;22.80;64.00
73955;DHT22;62306;52.516;13.290;2022-09-09T08:24:23;22.80;63.10
73955;DHT22;62306;52.516;13.290;2022-09-09T08:26:51;22.60;63.50
73955;DHT22;62306;52.516;13.290;2022-09-09T08:29:19;22.30;64.30
73955;DHT22;62306;52.516;13.290;2022-09-09T08:31:48;21.90;65.60
73955;DHT22;62306;52.516;13.290;2022-09-09T08:34:15;21.70;67.20
73955;DHT22;62306;52.516;13.290;2022-09-09T08:36:44;21.70;67.30
73955;DHT22;62306;52.516;13.290;2022-09-09T08:39:16;21.80;67.40
73955;DHT22;62306;52.516;13.290;2022-09-09T08:45:04;21.70;66.30
73955;DHT22;62306;52.516;13.290;2022-09-09T08:47:38;21.70;65.50
73955;DHT22;62306;52.516;13.290;2022-09-09T08:50:19;21.60;66.00
73955;DHT22;62306;52.516;13.290;2022-09-09T08:52:54;21.40;67.40
73955;DHT22;62306;52.516;13.290;2022-09-09T08:55:29;21.40;68.00
73955;DHT22;62306;52.516;13.290;2022-09-09T08:58:08;21.20;68.40
73955;DHT22;62306;52.516;13.290;2022-09-09T09:00:42;21.20;68.40
73955;DHT22;62306;52.516;13.290;2022-09-09T09:03:18;21.30;68.50
73955;DHT22;62306;52.516;13.290;2022-09-09T09:05:48;21.30;67.80
73955;DHT22;62306;52.516;13.290;2022-09-09T09:08:24;21.30;68.70
73955;DHT22;62306;52.516;13.290;2022-09-09T09:10:57;21.30;67.70
73955;DHT22;62306;52.516;13.290;2022-09-09T09:13:30;21.40;67.30
73955;DHT22;62306;52.516;13.290;2022-09-09T09:16:06;21.50;66.40
73955;DHT22;62306;52.516;13.290;2022-09-09T09:18:36;21.60;66.70
73955;DHT22;62306;52.516;13.290;2022-09-09T09:21:07;21.80;65.40
73955;DHT22;62306;52.516;13.290;2022-09-09T09:23:45;22.10;64.60
73955;DHT22;62306;52.516;13.290;2022-09-09T09:26:14;22.60;64.10
73955;DHT22;62306;52.516;13.290;2022-09-09T09:28:41;22.80;63.70
73955;DHT22;62306;52.516;13.290;2022-09-09T09:31:11;23.10;62.20
73955;DHT22;62306;52.516;13.290;2022-09-09T09:33:46;23.40;60.50
73955;DHT22;62306;52.516;13.290;2022-09-09T09:36:14;23.70;59.60
73955;DHT22;62306;52.516;13.290;2022-09-09T09:38:53;23.70;60.10
73955;DHT22;62306;52.516;13.290;2022-09-09T09:41:33;23.90;58.60
73955;DHT22;62306;52.516;13.290;2022-09-09T09:44:02;23.90;58.60
73955;DHT22;62306;52.516;13.290;2022-09-09T09:46:30;23.80;59.00
73955;DHT22;62306;52.516;13.290;2022-09-09T09:48:58;23.80;59.30
73955;DHT22;62306;52.516;13.290;2022-09-09T09:51:26;24.00;58.60
73955;DHT22;62306;52.516;13.290;2022-09-09T09:54:04;23.80;59.00
73955;DHT22;62306;52.516;13.290;2022-09-09T09:56:36;23.80;59.30
73955;DHT22;62306;52.516;13.290;2022-09-09T09:59:03;23.70;59.80
73955;DHT22;62306;52.516;13.290;2022-09-09T10:01:31;23.80;59.50
73955;DHT22;62306;52.516;13.290;2022-09-09T10:04:01;23.80;59.30
73955;DHT22;62306;52.516;13.290;2022-09-09T10:06:32;23.80;59.50
73955;DHT22;62306;52.516;13.290;2022-09-09T10:09:01;23.80;59.10
73955;DHT22;62306;52.516;13.290;2022-09-09T10:11:40;23.60;59.50
73955;DHT22;62306;52.516;13.290;2022-09-09T10:14:16;23.40;60.00
73955;DHT22;62306;52.516;13.290;2022-09-09T10:16:56;23.20;60.40
73955;DHT22;62306;52.516;13.290;2022-09-09T10:19:30;23.40;60.40
73955;DHT22;62306;52.516;13.290;2022-09-09T10:22:19;23.50;60.10
73955;DHT22;62306;52.516;13.290;2022-09-09T10:25:07;23.60;59.40
73955;DHT22;62306;52.516;13.290;2022-09-09T10:27:46;23.60;59.50
73955;DHT22;62306;52.516;13.290;2022-09-09T10:30:18;23.90;58.70
73955;DHT22;62306;52.516;13.290;2022-09-09T10:32:48;24.00;58.00
73955;DHT22;62306;52.516;13.290;2022-09-09T10:35:30;23.80;58.20
73955;DHT22;62306;52.516;13.290;2022-09-09T10:38:20;23.60;59.40
73955;DHT22;62306;52.516;13.290;2022-09-09T10:41:12;23.60;60.40
73955;DHT22;62306;52.516;13.290;2022-09-09T10:44:03;23.90;58.50
73955;DHT22;62306;52.516;13.290;2022-09-09T10:46:42;24.30;58.40
73955;DHT22;62306;52.516;13.290;2022-09-09T10:49:20;24.10;57.40
73955;DHT22;62306;52.516;13.290;2022-09-09T10:51:57;23.90;58.10
73955;DHT22;62306;52.516;13.290;2022-09-09T10:54:39;23.60;58.80
73955;DHT22;62306;52.516;13.290;2022-09-09T10:57:14;23.60;59.00
73955;DHT22;62306;52.516;13.290;2022-09-09T10:59:46;23.60;58.30
73955;DHT22;62306;52.516;13.290;2022-09-09T11:02:17;23.50;58.30
73955;DHT22;62306;52.516;13.290;2022-09-09T11:04:50;23.60;58.50
73955;DHT22;62306;52.516;13.290;2022-09-09T11:07:26;23.70;58.10
73955;DHT22;62306;52.516;13.290;2022-09-09T11:09:59;23.80;57.10
73955;DHT22;62306;52.516;13.290;2022-09-09T11:12:30;23.70;57.30
73955;DHT22;62306;52.516;13.290;2022-09-09T11:15:03;23.50;57.80
73955;DHT22;62306;52.516;13.290;2022-09-09T11:17:39;23.20;59.30
73955;DHT22;62306;52.516;13.290;2022-09-09T11:20:11;23.30;59.30
73955;DHT22;62306;52.516;13.290;2022-09-09T11:22:44;23.40;58.90
73955;DHT22;62306;52.516;13.290;2022-09-09T11:25:16;23.50;57.80
73955;DHT22;62306;52.516;13.290;2022-09-09T11:27:55;23.60;57.80
73955;DHT22;62306;52.516;13.290;2022-09-09T11:30:32;23.80;57.30
73955;DHT22;62306;52.516;13.290;2022-09-09T11:36:16;23.90;56.70
73955;DHT22;62306;52.516;13.290;2022-09-09T11:38:50;23.90;56.20
73955;DHT22;62306;52.516;13.290;2022-09-09T11:41:20;23.50;56.70
73955;DHT22;62306;52.516;13.290;2022-09-09T11:43:48;23.30;57.60
73955;DHT22;62306;52.516;13.290;2022-09-09T11:46:20;23.30;57.80
73955;DHT22;62306;52.516;13.290;2022-09-09T11:48:58;23.60;56.40
73955;DHT22;62306;52.516;13.290;2022-09-09T11:51:27;23.60;56.90
73955;DHT22;62306;52.516;13.290;2022-09-09T11:53:57;23.70;56.00
73955;DHT22;62306;52.516;13.290;2022-09-09T11:56:29;23.90;55.60
73955;DHT22;62306;52.516;13.290;2022-09-09T11:59:00;24.30;54.30
73955;DHT22;62306;52.516;13.290;2022-09-09T12:01:34;24.60;53.40
73955;DHT22;62306;52.516;13.290;2022-09-09T12:04:27;24.80;52.00
73955;DHT22;62306;52.516;13.290;2022-09-09T12:06:59;24.80;52.70
73955;DHT22;62306;52.516;13.290;2022-09-09T12:09:32;24.90;52.80
73955;DHT22;62306;52.516;13.290;2022-09-09T12:12:18;24.90;52.50
73955;DHT22;62306;52.516;13.290;2022-09-09T12:14:57;24.80;52.50
73955;DHT22;62306;52.516;13.290;2022-09-09T12:17:27;24.90;52.70
73955;DHT22;62306;52.516;13.290;2022-09-09T12:20:12;25.00;52.50
73955;DHT22;62306;52.516;13.290;2022-09-09T12:22:50;24.70;52.50
73955;DHT22;62306;52.516;13.290;2022-09-09T12:25:26;24.30;53.30
73955;DHT22;62306;52.516;13.290;2022-09-09T12:28:04;24.10;54.20
73955;DHT22;62306;52.516;13.290;2022-09-09T12:30:37;24.00;52.50
73955;DHT22;62306;52.516;13.290;2022-09-09T12:33:11;23.80;54.00
73955;DHT22;62306;52.516;13.290;2022-09-09T12:35:40;23.80;54.40
73955;DHT22;62306;52.516;13.290;2022-09-09T12:38:13;23.70;54.40
73955;DHT22;62306;52.516;13.290;2022-09-09T12:40:41;23.70;54.80
73955;DHT22;62306;52.516;13.290;2022-09-09T12:43:17;23.70;54.60
73955;DHT22;62306;52.516;13.290;2022-09-09T12:45:45;23.80;54.30
73955;DHT22;62306;52.516;13.290;2022-09-09T12:48:17;23.90;53.60
73955;DHT22;62306;52.516;13.290;2022-09-09T12:50:47;24.00;53.90
73955;DHT22;62306;52.516;13.290;2022-09-09T12:53:19;24.20;53.20
73955;DHT22;62306;52.516;13.290;2022-09-09T12:55:50;24.20;52.30
73955;DHT22;62306;52.516;13.290;2022-09-09T12:58:19;24.00;52.40
73955;DHT22;62306;52.516;13.290;2022-09-09T13:00:50;23.90;52.10
73955;DHT22;62306;52.516;13.290;2022-09-09T13:03:20;23.80;52.40
73955;DHT22;62306;52.516;13.290;2022-09-09T13:05:48;23.60;52.70
73955;DHT22;62306;52.516;13.290;2022-09-09T13:08:15;23.60;53.10
73955;DHT22;62306;52.516;13.290;2022-09-09T13:10:49;23.50;53.40
73955;DHT22;62306;52.516;13.290;2022-09-09T13:13:22;23.60;53.40
73955;DHT22;62306;52.516;13.290;2022-09-09T13:15:51;23.60;53.30
73955;DHT22;62306;52.516;13.290;2022-09-09T13:18:22;23.70;53.60
73955;DHT22;62306;52.516;13.290;2022-09-09T13:20:50;23.70;53.30
73955;DHT22;62306;52.516;13.290;2022-09-09T13:23:19;23.70;54.10
73955;DHT22;62306;52.516;13.290;2022-09-09T13:25:54;23.60;53.60
73955;DHT22;62306;52.516;13.290;2022-09-09T13:28:22;23.60;54.10
73955;DHT22;62306;52.516;13.290;2022-09-09T13:30:56;23.50;54.10
73955;DHT22;62306;52.516;13.290;2022-09-09T13:33:32;23.50;54.30
73955;DHT22;62306;52.516;13.290;2022-09-09T13:36:01;23.50;54.30
73955;DHT22;62306;52.516;13.290;2022-09-09T13:38:32;23.40;54.20
73955;DHT22;62306;52.516;13.290;2022-09-09T13:41:01;23.50;54.20
73955;DHT22;62306;52.516;13.290;2022-09-09T13:43:31;23.50;54.80
73955;DHT22;62306;52.516;13.290;2022-09-09T13:46:02;23.40;54.60
73955;DHT22;62306;52.516;13.290;2022-09-09T13:48:30;23.60;54.70
73955;DHT22;62306;52.516;13.290;2022-09-09T13:51:00;23.90;54.10
73955;DHT22;62306;52.516;13.290;2022-09-09T13:53:27;24.20;53.40
73955;DHT22;62306;52.516;13.290;2022-09-09T13:55:54;24.40;52.50
73955;DHT22;62306;52.516;13.290;2022-09-09T13:58:22;24.70;51.90
73955;DHT22;62306;52.516;13.290;2022-09-09T14:00:50;25.00;50.90
73955;DHT22;62306;52.516;13.290;2022-09-09T14:03:17;25.20;50.50
73955;DHT22;62306;52.516;13.290;2022-09-09T14:05:46;25.30;50.40
73955;DHT22;62306;52.516;13.290;2022-09-09T14:08:20;25.10;50.20
73955;DHT22;62306;52.516;13.290;2022-09-09T14:10:48;25.00;50.90
73955;DHT22;62306;52.516;13.290;2022-09-09T14:13:16;24.80;51.40
73955;DHT22;62306;52.516;13.290;2022-09-09T14:15:42;24.40;50.90
73955;DHT22;62306;52.516;13.290;2022-09-09T14:18:11;24.30;52.60
73955;DHT22;62306;52.516;13.290;2022-09-09T14:20:39;24.20;51.90
73955;DHT22;62306;52.516;13.290;2022-09-09T14:23:10;23.90;52.30
73955;DHT22;62306;52.516;13.290;2022-09-09T14:25:40;23.70;53.00
73955;DHT22;62306;52.516;13.290;2022-09-09T14:28:12;23.60;53.30
73955;DHT22;62306;52.516;13.290;2022-09-09T14:30:40;23.60;54.10
73955;DHT22;62306;52.516;13.290;2022-09-09T14:33:09;23.70;53.70
73955;DHT22;62306;52.516;13.290;2022-09-09T14:35:36;23.90;53.90
73955;DHT22;62306;52.516;13.290;2022-09-09T14:38:04;24.10;54.00
73955;DHT22;62306;52.516;13.290;2022-09-09T14:40:34;24.30;52.80
73955;DHT22;62306;52.516;13.290;2022-09-09T14:43:02;24.50;52.00
73955;DHT22;62306;52.516;13.290;2022-09-09T14:45:28;24.50;52.30
73955;DHT22;62306;52.516;13.290;2022-09-09T14:47:55;24.40;53.10
73955;DHT22;62306;52.516;13.290;2022-09-09T14:50:23;24.20;53.40
73955;DHT22;62306;52.516;13.290;2022-09-09T14:52:51;24.00;53.40
73955;DHT22;62306;52.516;13.290;2022-09-09T14:55:18;23.90;53.60
73955;DHT22;62306;52.516;13.290;2022-09-09T14:57:46;23.80;54.70
73955;DHT22;62306;52.516;13.290;2022-09-09T15:00:13;23.70;54.40
73955;DHT22;62306;52.516;13.290;2022-09-09T15:02:41;23.50;54.00
73955;DHT22;62306;52.516;13.290;2022-09-09T15:05:08;23.60;53.90
73955;DHT22;62306;52.516;13.290;2022-09-09T15:07:36;23.50;54.10
73955;DHT22;62306;52.516;13.290;2022-09-09T15:10:04;23.50;55.20
73955;DHT22;62306;52.516;13.290;2022-09-09T15:12:32;23.40;55.20
73955;DHT22;62306;52.516;13.290;2022-09-09T15:15:02;23.50;55.40
73955;DHT22;62306;52.516;13.290;2022-09-09T15:17:29;23.50;56.00
73955;DHT22;62306;52.516;13.290;2022-09-09T15:19:56;23.50;56.00
73955;DHT22;62306;52.516;13.290;2022-09-09T15:22:23;23.60;56.30
73955;DHT22;62306;52.516;13.290;2022-09-09T15:24:50;23.40;56.60
73955;DHT22;62306;52.516;13.290;2022-09-09T15:27:18;23.30;56.70
73955;DHT22;62306;52.516;13.290;2022-09-09T15:29:45;23.20;57.10
73955;DHT22;62306;52.516;13.290;2022-09-09T15:32:13;23.10;57.10
73955;DHT22;62306;52.516;13.290;2022-09-09T15:34:40;22.90;57.80
73955;DHT22;62306;52.516;13.290;2022-09-09T15:37:09;22.80;56.80
73955;DHT22;62306;52.516;13.290;2022-09-09T15:39:37;22.80;57.20
73955;DHT22;62306;52.516;13.290;2022-09-09T15:42:04;22.60;57.80
73955;DHT22;62306;52.516;13.290;2022-09-09T15:44:38;22.50;58.20